createdAt,value
2019-01-24T00:02:29.625Z,99.10
2019-01-24T00:04:59.541Z,99.60
2019-01-24T00:07:29.489Z,99.90
2019-01-24T00:09:59.422Z,98.30
2019-01-24T00:12:29.386Z,99.20
2019-01-24T00:14:59.347Z,98.60
2019-01-24T00:17:29.489Z,99.90
2019-01-24T00:19:59.392Z,99.10
2019-01-24T00:22:29.330Z,98.40
2019-01-24T00:24:59.187Z,98.30
2019-01-24T00:27:29.140Z,99.90
2019-01-24T00:29:59.054Z,99.90
2019-01-24T00:32:28.962Z,99.90
2019-01-24T00:34:58.875Z,99.90
2019-01-24T00:37:28.810Z,99.90
2019-01-24T00:39:58.979Z,99.30
2019-01-24T00:42:28.931Z,99.90
2019-01-24T00:44:58.779Z,98.70
2019-01-24T00:47:28.775Z,99.90
2019-01-24T00:49:58.714Z,99.50
2019-01-24T00:52:29.072Z,99.50
2019-01-24T00:54:59.055Z,99.90
2019-01-24T00:57:28.968Z,99.90
2019-01-24T00:59:58.894Z,99.90
2019-01-24T01:02:28.852Z,99.90
2019-01-24T01:04:58.811Z,99.90
2019-01-24T01:07:28.759Z,99.90
2019-01-24T01:09:58.705Z,99.00
2019-01-24T01:12:28.554Z,99.70
2019-01-24T01:14:58.490Z,99.50
2019-01-24T01:17:28.370Z,99.90
2019-01-24T01:19:58.684Z,99.40
2019-01-24T01:22:28.640Z,98.50
2019-01-24T01:24:59.751Z,98.00
2019-01-24T01:27:29.682Z,99.90
2019-01-24T01:29:59.608Z,99.10
2019-01-24T01:32:29.855Z,99.10
2019-01-24T01:35:00.026Z,99.20
2019-01-24T01:37:29.953Z,99.90
2019-01-24T01:39:59.919Z,98.90
2019-01-24T01:42:29.852Z,99.60
2019-01-24T01:44:59.803Z,99.10
2019-01-24T01:47:29.770Z,99.90
2019-01-24T01:49:59.730Z,99.50
2019-01-24T01:52:29.647Z,98.60
2019-01-24T01:54:59.584Z,98.10
2019-01-24T01:57:29.461Z,99.90
2019-01-24T01:59:59.417Z,99.90
2019-01-24T02:02:29.505Z,99.90
2019-01-24T02:04:59.451Z,99.10
2019-01-24T02:07:29.405Z,99.90
2019-01-24T02:09:59.332Z,97.90
2019-01-24T02:12:29.326Z,97.90
2019-01-24T02:14:59.456Z,98.70
2019-01-24T02:17:29.380Z,99.90
2019-01-24T02:19:59.322Z,97.40
2019-01-24T02:22:29.301Z,99.90
2019-01-24T02:24:59.228Z,98.30
2019-01-24T02:27:29.199Z,99.90
2019-01-24T02:29:59.086Z,98.50
2019-01-24T02:32:29.262Z,98.90
2019-01-24T02:34:59.194Z,99.90
2019-01-24T02:37:29.501Z,99.90
2019-01-24T02:39:59.355Z,99.90
2019-01-24T02:42:29.319Z,99.90
2019-01-24T02:44:59.259Z,99.90
2019-01-24T02:47:29.254Z,99.90
2019-01-24T02:49:59.195Z,99.90
2019-01-24T02:52:29.169Z,92.90
2019-01-24T02:54:59.125Z,95.70
2019-01-24T02:57:29.090Z,99.90
2019-01-24T02:59:59.022Z,95.70
2019-01-24T03:02:29.047Z,95.40
2019-01-24T03:04:58.995Z,95.50
2019-01-24T03:07:28.956Z,99.90
2019-01-24T03:09:58.890Z,98.40
2019-01-24T03:12:28.857Z,96.10
2019-01-24T03:14:58.697Z,99.90
2019-01-24T03:17:28.593Z,99.90
2019-01-24T03:19:58.453Z,99.90
2019-01-24T03:22:28.364Z,97.60
2019-01-24T03:24:59.383Z,99.30
2019-01-24T03:27:29.380Z,99.90
2019-01-24T03:29:59.316Z,98.20
2019-01-24T03:32:29.929Z,95.80
2019-01-24T03:35:04.018Z,99.40
2019-01-24T03:37:31.874Z,99.90
2019-01-24T03:40:01.851Z,99.40
2019-01-24T03:42:32.233Z,94.50
2019-01-24T03:45:02.152Z,96.80
2019-01-24T03:47:32.122Z,99.90
2019-01-24T03:50:02.035Z,96.70
2019-01-24T03:52:31.949Z,98.30
2019-01-24T03:55:01.853Z,98.30
2019-01-24T03:57:31.779Z,99.90
2019-01-24T04:00:01.749Z,99.90
2019-01-24T04:02:31.640Z,99.90
2019-01-24T04:05:01.552Z,99.90
2019-01-24T04:07:31.479Z,99.90
2019-01-24T04:10:01.440Z,97.50
2019-01-24T04:12:31.377Z,96.80
2019-01-24T04:15:01.334Z,97.10
2019-01-24T04:17:31.251Z,99.90
2019-01-24T04:20:01.350Z,99.60
2019-01-24T04:22:31.283Z,97.40
2019-01-24T04:25:01.189Z,97.90
2019-01-24T04:27:31.492Z,99.90
2019-01-24T04:30:01.443Z,99.90
2019-01-24T04:32:31.399Z,99.10
2019-01-24T04:35:01.361Z,99.90
2019-01-24T04:37:31.301Z,99.90
2019-01-24T04:40:01.239Z,99.30
2019-01-24T04:42:31.166Z,99.20
2019-01-24T04:45:01.041Z,98.30
2019-01-24T04:47:31.043Z,99.90
2019-01-24T04:50:01.007Z,99.10
2019-01-24T04:52:30.935Z,98.20
2019-01-24T04:55:00.908Z,99.10
2019-01-24T04:57:30.849Z,99.90
2019-01-24T05:00:00.733Z,99.90
2019-01-24T05:02:30.622Z,99.40
2019-01-24T05:05:00.542Z,99.90
2019-01-24T05:07:30.763Z,99.90
2019-01-24T05:10:02.313Z,99.90
2019-01-24T05:12:32.493Z,99.90
2019-01-24T05:15:02.381Z,97.40
2019-01-24T05:17:32.341Z,99.90
2019-01-24T05:20:02.204Z,99.90
2019-01-24T05:22:32.051Z,99.90
2019-01-24T05:25:01.933Z,99.90
2019-01-24T05:27:31.898Z,99.90
2019-01-24T05:30:01.881Z,99.90
2019-01-24T05:32:31.808Z,99.90
2019-01-24T05:35:01.815Z,99.90
2019-01-24T05:37:31.746Z,99.90
2019-01-24T05:40:01.735Z,99.90
2019-01-24T05:42:31.739Z,99.90
2019-01-24T05:45:01.698Z,99.90
2019-01-24T05:47:31.677Z,99.90
2019-01-24T05:50:01.820Z,99.90
2019-01-24T05:52:31.965Z,99.90
2019-01-24T05:55:02.035Z,99.90
2019-01-24T05:57:32.102Z,99.90
2019-01-24T06:00:02.149Z,99.90
2019-01-24T06:02:31.998Z,99.90
2019-01-24T06:05:02.583Z,99.90
2019-01-24T06:07:32.533Z,99.90
2019-01-24T06:10:02.400Z,99.90
2019-01-24T06:12:32.271Z,99.90
2019-01-24T06:15:02.222Z,99.90
2019-01-24T06:17:32.153Z,99.90
2019-01-24T06:20:01.993Z,99.50
2019-01-24T06:22:31.969Z,99.90
2019-01-24T06:25:01.827Z,99.90
2019-01-24T06:27:31.766Z,99.90
2019-01-24T06:30:01.696Z,99.90
2019-01-24T06:32:31.674Z,99.90
2019-01-24T06:35:01.607Z,99.90
2019-01-24T06:37:31.593Z,99.90
2019-01-24T06:40:01.528Z,99.90
2019-01-24T06:42:31.521Z,99.90
2019-01-24T06:45:01.403Z,99.90
2019-01-24T06:47:31.388Z,99.90
2019-01-24T06:50:01.341Z,99.60
2019-01-24T06:52:31.337Z,99.90
2019-01-24T06:55:01.285Z,99.90
2019-01-24T06:57:31.266Z,99.90
2019-01-24T07:00:01.429Z,99.90
2019-01-24T07:02:31.407Z,99.90
2019-01-24T07:05:01.320Z,99.90
2019-01-24T07:07:31.265Z,99.90
2019-01-24T07:10:01.135Z,99.90
2019-01-24T07:12:31.073Z,99.90
2019-01-24T07:15:01.013Z,99.90
2019-01-24T07:17:30.970Z,99.90
2019-01-24T07:20:00.945Z,99.90
2019-01-24T07:22:30.902Z,99.90
2019-01-24T07:25:01.023Z,99.90
2019-01-24T07:27:30.992Z,99.90
2019-01-24T07:30:04.517Z,99.90
2019-01-24T07:32:34.421Z,99.90
2019-01-24T07:35:05.037Z,99.90
2019-01-24T07:37:34.953Z,99.90
2019-01-24T07:40:06.151Z,99.90
2019-01-24T07:42:36.113Z,99.90
2019-01-24T07:45:10.526Z,99.90
2019-01-24T07:47:40.517Z,99.90
2019-01-24T07:50:11.954Z,99.90
2019-01-24T07:52:41.894Z,99.90
2019-01-24T07:55:12.368Z,99.90
2019-01-24T07:57:42.653Z,99.90
2019-01-24T08:00:16.334Z,99.90
2019-01-24T08:02:46.278Z,99.90
2019-01-24T08:05:16.366Z,99.90
2019-01-24T08:07:46.325Z,99.90
2019-01-24T08:10:17.797Z,99.90
2019-01-24T08:12:48.177Z,99.90
2019-01-24T08:15:19.397Z,99.90
2019-01-24T08:17:49.772Z,99.90
2019-01-24T08:20:21.807Z,99.90
2019-01-24T08:22:51.750Z,99.90
2019-01-24T08:30:28.532Z,99.90
2019-01-24T08:32:58.481Z,99.90
2019-01-24T08:35:28.688Z,99.90
2019-01-24T08:42:56.876Z,99.90
2019-01-24T08:52:54.725Z,99.10
2019-01-24T08:55:39.283Z,98.70
2019-01-24T08:58:10.168Z,98.40
2019-01-24T09:00:40.306Z,99.10
2019-01-24T09:03:10.278Z,98.90
2019-01-24T09:05:40.192Z,98.50
2019-01-24T09:10:41.625Z,97.80
2019-01-24T09:13:11.603Z,97.10
2019-01-24T09:20:39.953Z,95.70
2019-01-24T09:23:09.855Z,94.20
2019-01-24T09:25:39.805Z,91.60
2019-01-24T09:28:14.817Z,84.10
2019-01-24T09:35:40.799Z,71.80
2019-01-24T09:38:10.732Z,67.30
2019-01-24T09:43:09.969Z,65.70
2019-01-24T09:45:39.896Z,67.20
2019-01-24T09:48:10.026Z,66.60
2019-01-24T09:50:39.965Z,65.20
2019-01-24T10:00:38.380Z,64.00
2019-01-24T10:05:37.657Z,67.70
2019-01-24T10:15:36.094Z,80.20
2019-01-24T10:18:06.246Z,78.50
2019-01-24T10:23:05.773Z,82.50
2019-01-24T10:28:06.877Z,85.80
2019-01-24T10:30:42.742Z,86.40
2019-01-24T10:38:07.086Z,87.80
2019-01-24T10:40:36.957Z,86.20
2019-01-24T10:43:06.993Z,85.70
2019-01-24T10:45:36.969Z,86.60
2019-01-24T10:48:07.353Z,87.30
2019-01-24T10:50:37.297Z,86.20
2019-01-24T10:55:36.425Z,83.60
2019-01-24T11:00:39.178Z,88.20
2019-01-24T11:05:45.454Z,87.70
2019-01-24T11:08:15.941Z,87.00
2019-01-24T11:10:45.936Z,83.60
2019-01-24T11:15:45.142Z,72.10
2019-01-24T11:20:44.337Z,65.20
2019-01-24T11:23:14.430Z,67.40
2019-01-24T11:28:13.613Z,63.50
2019-01-24T11:35:42.051Z,74.20
2019-01-24T11:38:12.195Z,72.20
2019-01-24T11:40:42.234Z,72.00
2019-01-24T11:43:12.125Z,75.60
2019-01-24T11:45:43.672Z,75.80
2019-01-24T11:48:13.624Z,78.40
2019-01-24T11:53:12.758Z,77.30
2019-01-24T11:55:42.778Z,77.90
2019-01-24T11:58:12.741Z,74.20
2019-01-24T12:00:48.518Z,68.70
2019-01-24T12:03:18.479Z,65.90
2019-01-24T12:05:48.395Z,67.90
2019-01-24T12:08:18.294Z,62.00
2019-01-24T12:10:48.260Z,58.50
2019-01-24T12:13:18.272Z,56.80
2019-01-24T12:23:16.041Z,55.60
2019-01-24T12:25:45.946Z,51.50
2019-01-24T12:30:45.184Z,54.00
2019-01-24T12:40:42.855Z,57.80
2019-01-24T12:50:40.788Z,66.50
2019-01-24T12:58:09.228Z,67.70
2019-01-24T13:00:40.113Z,68.90
2019-01-24T13:03:10.245Z,66.50
2019-01-24T13:05:40.310Z,68.00
2019-01-24T13:08:10.281Z,68.20
2019-01-24T13:10:40.149Z,73.00
2019-01-24T13:13:10.144Z,69.60
2019-01-24T13:15:41.238Z,70.00
2019-01-24T13:20:40.365Z,73.10
2019-01-24T13:23:10.266Z,72.60
2019-01-24T13:25:40.182Z,73.40
2019-01-24T13:28:10.141Z,74.50
2019-01-24T13:30:40.193Z,73.40
2019-01-24T13:40:38.200Z,76.40
2019-01-24T13:45:40.419Z,75.80
2019-01-24T13:48:10.536Z,76.90
2019-01-24T13:50:40.399Z,74.30
2019-01-24T14:00:40.509Z,75.00
2019-01-24T14:03:20.197Z,77.70
2019-01-24T14:05:50.134Z,79.00
2019-01-24T14:13:18.574Z,75.80
2019-01-24T14:18:17.930Z,77.60
2019-01-24T14:20:47.986Z,77.90
2019-01-24T14:25:47.239Z,76.50
2019-01-24T14:30:46.601Z,78.80
2019-01-24T14:33:16.508Z,79.20
2019-01-24T14:35:47.974Z,79.30
2019-01-24T14:43:16.349Z,80.50
2019-01-24T14:45:46.360Z,80.60
2019-01-24T14:53:15.056Z,84.00
2019-01-24T14:55:44.995Z,82.00
2019-01-24T15:00:53.737Z,81.70
2019-01-24T15:05:52.864Z,81.00
2019-01-24T15:10:52.040Z,84.10
2019-01-24T15:13:22.239Z,83.30
2019-01-24T15:15:52.202Z,83.40
2019-01-24T15:18:22.137Z,83.10
2019-01-24T15:20:52.087Z,85.00
2019-01-24T15:23:22.026Z,82.10
2019-01-24T15:25:51.966Z,85.80
2019-01-24T15:30:51.259Z,85.90
2019-01-24T15:35:51.453Z,85.00
2019-01-24T15:38:21.590Z,88.40
2019-01-24T15:40:51.598Z,87.70
2019-01-24T15:43:21.562Z,89.60
2019-01-24T15:45:51.518Z,89.40
2019-01-24T15:48:21.490Z,90.00
2019-01-24T15:50:51.454Z,90.80
2019-01-24T15:53:22.301Z,89.80
2019-01-24T15:55:52.265Z,91.30
2019-01-24T16:13:17.694Z,93.00
2019-01-24T16:15:47.806Z,93.40
2019-01-24T16:20:47.006Z,94.60
2019-01-24T16:23:16.975Z,96.30
2019-01-24T16:33:14.953Z,97.40
2019-01-24T16:35:44.949Z,99.90
2019-01-24T16:40:44.201Z,99.10
2019-01-24T16:43:14.138Z,99.90
2019-01-24T16:45:44.229Z,99.90
2019-01-24T16:50:43.427Z,99.30
2019-01-24T16:55:42.569Z,99.20
2019-01-24T16:58:12.715Z,99.90
2019-01-24T17:00:45.965Z,99.90
2019-01-24T17:03:16.985Z,99.90
2019-01-24T17:08:16.949Z,99.90
2019-01-24T17:10:46.873Z,99.90
2019-01-24T17:13:17.061Z,99.90
2019-01-24T17:20:45.524Z,99.90
2019-01-24T17:25:44.634Z,99.90
2019-01-24T17:28:16.025Z,99.90
2019-01-24T17:33:15.138Z,99.90
2019-01-24T17:35:45.007Z,99.90
2019-01-24T17:38:15.529Z,99.90
2019-01-24T17:40:45.510Z,99.90
2019-01-24T17:48:13.993Z,99.90
2019-01-24T17:53:13.144Z,99.90
2019-01-24T17:55:45.438Z,99.90
2019-01-24T17:58:15.389Z,99.90
2019-01-24T18:00:50.793Z,99.90
2019-01-24T18:05:50.063Z,99.90
2019-01-24T18:08:20.166Z,99.90
2019-01-24T18:10:50.438Z,99.90
2019-01-24T18:13:20.369Z,99.90
2019-01-24T18:15:50.548Z,99.90
2019-01-24T18:18:20.510Z,99.90
2019-01-24T18:20:51.914Z,99.90
2019-01-24T18:23:21.941Z,99.90
2019-01-24T18:25:51.879Z,99.90
2019-01-24T18:38:18.846Z,99.70
2019-01-24T18:48:19.495Z,98.30
2019-01-24T18:50:49.653Z,99.90
2019-01-24T18:55:48.683Z,99.30
2019-01-24T18:58:18.674Z,99.20
2019-01-24T19:00:49.094Z,99.90
2019-01-24T19:05:48.179Z,99.90
2019-01-24T19:10:47.370Z,99.90
2019-01-24T19:13:17.934Z,99.90
2019-01-24T19:15:49.406Z,99.90
2019-01-24T19:18:19.477Z,98.70
2019-01-24T19:23:18.617Z,99.40
2019-01-24T19:25:48.517Z,98.50
2019-01-24T19:43:14.553Z,99.80
2019-01-24T19:48:14.396Z,99.40
2019-01-24T19:50:44.308Z,99.90
2019-01-24T19:53:14.250Z,99.90
2019-01-24T19:55:44.252Z,99.90
2019-01-24T19:58:14.216Z,99.90
2019-01-24T20:03:13.493Z,99.70
2019-01-24T20:05:43.438Z,99.90
2019-01-24T20:10:43.093Z,99.90
2019-01-24T20:13:13.099Z,99.90
2019-01-24T20:18:12.637Z,99.90
2019-01-24T20:20:42.893Z,99.90
2019-01-24T20:25:42.134Z,99.90
2019-01-24T20:28:12.038Z,99.90
2019-01-24T20:38:12.188Z,99.70
2019-01-24T20:40:42.890Z,99.90
2019-01-24T20:43:13.774Z,99.90
2019-01-24T20:45:43.678Z,99.90
2019-01-24T20:50:42.880Z,99.90
2019-01-24T20:53:12.820Z,99.90
2019-01-24T20:55:42.790Z,99.90
2019-01-24T21:03:20.450Z,99.80
2019-01-24T21:10:49.087Z,98.90
2019-01-24T21:15:48.441Z,98.90
2019-01-24T21:18:18.393Z,99.30
2019-01-24T21:23:17.478Z,98.50
2019-01-24T21:25:47.839Z,99.00
2019-01-24T21:30:47.161Z,99.30
2019-01-24T21:38:15.656Z,99.60
2019-01-24T21:40:47.109Z,99.30
2019-01-24T21:43:16.989Z,99.10
2019-01-24T21:45:46.966Z,99.60
2019-01-24T21:53:15.429Z,99.00
2019-01-24T21:55:45.409Z,98.90
2019-01-24T22:03:13.886Z,98.10
2019-01-24T22:08:13.198Z,99.40
2019-01-24T22:10:43.137Z,99.40
2019-01-24T22:13:13.000Z,98.70
2019-01-24T22:15:42.957Z,99.80
2019-01-24T22:18:12.799Z,99.90
2019-01-24T22:20:42.785Z,99.90
2019-01-24T22:25:41.824Z,99.90
2019-01-24T22:28:11.770Z,99.60
2019-01-24T22:30:46.673Z,98.10
2019-01-24T22:33:16.559Z,99.00
2019-01-24T22:35:46.501Z,99.90
2019-01-24T22:45:44.317Z,98.60
2019-01-24T22:50:43.429Z,98.90
2019-01-24T22:53:13.308Z,99.40
2019-01-24T22:55:43.205Z,99.20
2019-01-24T22:58:13.140Z,99.30
2019-01-24T23:01:06.059Z,99.70
2019-01-24T23:03:42.598Z,99.80
2019-01-24T23:06:12.569Z,99.70
2019-01-24T23:08:42.475Z,99.80
2019-01-24T23:11:12.605Z,99.90
2019-01-24T23:16:11.988Z,99.90
2019-01-24T23:18:41.861Z,99.60
2019-01-24T23:21:11.776Z,99.50
2019-01-24T23:26:11.389Z,99.90
2019-01-24T23:28:41.371Z,99.90
2019-01-24T23:31:11.260Z,99.90
2019-01-24T23:33:41.210Z,99.90
2019-01-24T23:36:11.227Z,99.90
2019-01-24T23:41:10.340Z,99.90
2019-01-24T23:43:40.777Z,99.90
2019-01-24T23:48:40.005Z,99.90
2019-01-24T23:51:10.259Z,99.90
2019-01-24T23:53:40.275Z,99.90
2019-01-24T23:56:10.392Z,99.90
2019-01-24T23:58:40.642Z,99.90
